Аэропорт: Белгород . Белгород

ICAO: UUOB

METAR:
2022-01-28 09:00:00
UUOB 280900Z 18005MPS 2800 -SN BR OVC006 M05/M06 Q1008 R11/420340 NOSIG
METAR:
Информация по данной станции не доступна